Weather History for Rockland, ME

Change the Weather History Date:

Monday, February 17, 2014

  Actual Average Record
Temperature  
Mean Temperature 16 °F -  
Max Temperature 24 °F 31 °F 46 °F (2006)
Min Temperature 8 °F 17 °F 1 °F (2004)
Degree Days  
Heating Degree Days 49    
Moisture  
Dew Point -3 °F    
Average Humidity 44    
Maximum Humidity 67    
Minimum Humidity 28    
Precipitation  
Precipitation 0.00 in - - ()
Sea Level Pressure  
Sea Level Pressure 30.11 in    
Wind  
Wind Speed 10 mph (WNW)    
Max Wind Speed 20 mph    
Max Gust Speed 30 mph    
Visibility 10 miles    
Events      
Averages and records for this station are not official NWS values.
T = Trace of Precipitation, MM = Missing Value Source: NWS Daily Summary

Daily Weather History Graph

Daily Weather History Graph

Search for Another Location

Airport:

Trip Planner

Search our weather history database for the weather conditions in past years. The results will help you decide how hot, cold, wet, or windy it might be!

Date:

Astronomy

Feb. 17, 2014 Rise Set
Actual Time 6:32 AM EST 5:08 PM EST
Civil Twilight 6:03 AM EST 5:38 PM EST
Nautical Twilight 5:29 AM EST 6:12 PM EST
Astronomical Twilight 4:56 AM EST 6:45 PM EST
Moon 8:07 PM EST (2/17) 7:24 AM EST (2/17)
Length of Visible Light 11h 35m
Length of Day
10h 36m
Waning Gibbous, 93% of the Moon is Illuminated
Feb 17
Waning Gibbous
Feb 22
Last Quarter
Mar 1
New
Mar 8
First Quarter
Mar 16
Full

Hourly Weather History & Observations

Time (EST) Temp. Windchill Dew Point Humidity Pressure Visibility Wind Dir Wind Speed Gust Speed Precip Events Conditions
12:15 AM 12.2 °F 0.7 °F 3.2 °F 67% 29.88 in 10.0 mi West 8.1 mph - N/A   Clear
12:35 AM 12.2 °F 0.7 °F 1.4 °F 62% 29.88 in 10.0 mi West 8.1 mph - N/A   Clear
12:55 AM 14.0 °F -0.2 °F 1.4 °F 57% 29.89 in 10.0 mi West 12.7 mph 16.1 mph N/A   Clear
1:15 AM 14.0 °F 0.5 °F 1.4 °F 57% 29.89 in 10.0 mi West 11.5 mph - N/A   Clear
1:35 AM 14.0 °F 2.9 °F 1.4 °F 57% 29.90 in 10.0 mi West 8.1 mph - N/A   Clear
1:55 AM 12.2 °F 0.7 °F -0.4 °F 57% 29.91 in 10.0 mi West 8.1 mph - N/A   Clear
2:15 AM 12.2 °F -0.2 °F 1.4 °F 62% 29.90 in 10.0 mi West 9.2 mph - N/A   Clear
2:35 AM 12.2 °F 0.7 °F -0.4 °F 57% 29.90 in 10.0 mi WNW 8.1 mph - N/A   Clear
2:55 AM 12.2 °F 1.7 °F -0.4 °F 57% 29.90 in 10.0 mi WNW 6.9 mph - N/A   Clear
3:15 AM 12.2 °F 0.7 °F 1.4 °F 62% 29.91 in 10.0 mi WNW 8.1 mph - N/A   Clear
3:35 AM 12.2 °F 1.7 °F -0.4 °F 57% 29.92 in 10.0 mi WNW 6.9 mph - N/A   Clear
3:55 AM 10.4 °F -4.1 °F -2.2 °F 57% 29.92 in 10.0 mi WNW 11.5 mph - N/A   Clear
4:15 AM 10.4 °F -1.5 °F -0.4 °F 62% 29.93 in 10.0 mi WNW 8.1 mph - N/A   Clear
4:35 AM 10.4 °F -2.4 °F -2.2 °F 57% 29.95 in 10.0 mi WNW 9.2 mph - N/A   Clear
4:55 AM 10.4 °F -1.5 °F -0.4 °F 62% 29.96 in 10.0 mi WNW 8.1 mph - N/A   Clear
5:15 AM 10.4 °F -4.8 °F -2.2 °F 57% 29.96 in 10.0 mi West 12.7 mph - N/A   Clear
5:35 AM 8.6 °F -7.0 °F -0.4 °F 67% 29.96 in 10.0 mi West 12.7 mph - N/A   Clear
5:55 AM 10.4 °F -3.3 °F -0.4 °F 62% 29.98 in 10.0 mi West 10.4 mph - N/A   Clear
6:15 AM 10.4 °F -4.1 °F -2.2 °F 57% 29.99 in 10.0 mi WNW 11.5 mph 16.1 mph N/A   Clear
6:35 AM 10.4 °F -3.3 °F -2.2 °F 57% 30.00 in 10.0 mi West 10.4 mph - N/A   Clear
6:55 AM 10.4 °F -3.3 °F -2.2 °F 57% 30.01 in 10.0 mi West 10.4 mph - N/A   Clear
7:15 AM 8.6 °F -2.6 °F -2.2 °F 62% 30.03 in 10.0 mi WNW 6.9 mph - N/A   Clear
7:35 AM 10.4 °F -3.3 °F -2.2 °F 57% 30.04 in 10.0 mi West 10.4 mph - N/A   Clear
7:55 AM 12.2 °F 0.7 °F -4.0 °F 48% 30.05 in 10.0 mi WNW 8.1 mph - N/A   Clear
8:15 AM 12.2 °F 0.7 °F -5.8 °F 45% 30.06 in 10.0 mi WNW 8.1 mph 17.3 mph N/A   Clear
8:35 AM 12.2 °F -1.8 °F -4.0 °F 48% 30.06 in 10.0 mi NW 11.5 mph - N/A   Clear
8:55 AM 14.0 °F 5.1 °F -5.8 °F 41% 30.07 in 10.0 mi WNW 5.8 mph 16.1 mph N/A   Clear
9:15 AM 15.8 °F 2.1 °F -4.0 °F 41% 30.06 in 10.0 mi NW 12.7 mph 17.3 mph N/A   Clear
9:35 AM 17.6 °F 5.7 °F -4.0 °F 38% 30.06 in 10.0 mi NW 10.4 mph - N/A   Clear
9:55 AM 17.6 °F 4.3 °F -4.0 °F 38% 30.06 in 10.0 mi NNW 12.7 mph 18.4 mph N/A   Clear
10:15 AM 19.4 °F 6.6 °F -5.8 °F 33% 30.07 in 10.0 mi WNW 12.7 mph 25.3 mph N/A   Clear
10:35 AM 19.4 °F 4.5 °F -5.8 °F 33% 30.07 in 10.0 mi WNW 17.3 mph 28.8 mph N/A   Clear
10:55 AM 19.4 °F 4.1 °F -4.0 °F 36% 30.08 in 10.0 mi WNW 18.4 mph 29.9 mph N/A   Clear
11:15 AM 21.2 °F 8.3 °F -4.0 °F 33% 30.08 in 10.0 mi WNW 13.8 mph 29.9 mph N/A   Clear
11:35 AM 21.2 °F 6.4 °F -2.2 °F 36% 30.08 in 10.0 mi WNW 18.4 mph 29.9 mph N/A   Clear
11:55 AM 21.2 °F 7.8 °F -2.2 °F 36% 30.08 in 10.0 mi WNW 15.0 mph 24.2 mph N/A   Clear
12:15 PM 21.2 °F 7.8 °F -2.2 °F 36% 30.08 in 10.0 mi WNW 15.0 mph 26.5 mph N/A   Clear
12:35 PM 24.8 °F 10.7 °F -0.4 °F 34% 30.09 in 10.0 mi WNW 19.6 mph 27.6 mph N/A   Clear
12:55 PM 24.8 °F 10.7 °F -2.2 °F 31% 30.09 in 10.0 mi West 19.6 mph 26.5 mph N/A   Clear
1:15 PM 24.8 °F 12.4 °F -2.2 °F 31% 30.10 in 8.0 mi WNW 15.0 mph 26.5 mph N/A   Clear
1:35 PM 24.8 °F 12.4 °F -2.2 °F 31% 30.11 in 10.0 mi WNW 15.0 mph 24.2 mph N/A   Clear
1:55 PM 24.8 °F 12.9 °F -2.2 °F 31% 30.11 in 10.0 mi WNW 13.8 mph 21.9 mph N/A   Clear
2:15 PM 24.8 °F 12.4 °F -2.2 °F 31% 30.12 in 10.0 mi WNW 15.0 mph 25.3 mph N/A   Clear
2:35 PM 24.8 °F 14.0 °F -0.4 °F 34% 30.14 in 10.0 mi WNW 11.5 mph 27.6 mph N/A   Clear
2:55 PM 24.8 °F 14.0 °F -2.2 °F 31% 30.14 in 10.0 mi NW 11.5 mph 21.9 mph N/A   Clear
3:15 PM 24.8 °F 15.3 °F -4.0 °F 28% 30.16 in 10.0 mi NW 9.2 mph 24.2 mph N/A   Clear
3:35 PM 24.8 °F 12.9 °F -2.2 °F 31% 30.17 in 10.0 mi NW 13.8 mph 21.9 mph N/A   Clear
3:55 PM 24.8 °F 13.4 °F -4.0 °F 28% 30.17 in 10.0 mi WNW 12.7 mph 19.6 mph N/A   Clear
4:15 PM 24.8 °F 14.6 °F -4.0 °F 28% 30.18 in 10.0 mi NW 10.4 mph 18.4 mph N/A   Clear
4:35 PM 23.0 °F 14.7 °F -4.0 °F 31% 30.19 in 10.0 mi NW 6.9 mph 25.3 mph N/A   Clear
4:55 PM 23.0 °F 11.7 °F -4.0 °F 31% 30.20 in 10.0 mi WNW 11.5 mph 19.6 mph N/A   Clear
5:15 PM 21.2 °F 9.5 °F -4.0 °F 33% 30.22 in 10.0 mi WNW 11.5 mph 19.6 mph N/A   Clear
5:35 PM 21.2 °F - -2.2 °F 36% 30.23 in 10.0 mi Calm Calm - N/A   Clear
5:55 PM 19.4 °F 11.5 °F -2.2 °F 39% 30.25 in 10.0 mi NNE 5.8 mph - N/A   Clear
6:15 PM 19.4 °F 11.5 °F -2.2 °F 39% 30.26 in 10.0 mi NW 5.8 mph - N/A   Clear
6:35 PM 19.4 °F 9.5 °F -4.0 °F 36% 30.28 in 10.0 mi NNW 8.1 mph 16.1 mph N/A   Clear
6:55 PM 19.4 °F 9.5 °F -4.0 °F 36% 30.29 in 10.0 mi NW 8.1 mph - N/A   Clear
7:15 PM 19.4 °F 8.6 °F -2.2 °F 39% 30.30 in 10.0 mi NW 9.2 mph - N/A   Clear
7:35 PM 17.6 °F 9.3 °F -4.0 °F 38% 30.30 in 10.0 mi NNW 5.8 mph - N/A   Clear
7:55 PM 17.6 °F 10.7 °F -5.8 °F 35% 30.32 in 10.0 mi NW 4.6 mph - N/A   Clear
8:15 PM 17.6 °F 7.3 °F -4.0 °F 38% 30.32 in 10.0 mi NNW 8.1 mph - N/A   Clear
8:35 PM 15.8 °F 10.2 °F -5.8 °F 38% 30.32 in 10.0 mi NW 3.5 mph - N/A   Clear
8:55 PM 15.8 °F 6.1 °F -5.8 °F 38% 30.33 in 10.0 mi NW 6.9 mph - N/A   Clear
9:15 PM 15.8 °F 5.1 °F -5.8 °F 38% 30.33 in 10.0 mi NW 8.1 mph - N/A   Clear
9:35 PM 15.8 °F 10.2 °F -5.8 °F 38% 30.33 in 10.0 mi NW 3.5 mph - N/A   Clear
9:55 PM 14.0 °F 6.5 °F -5.8 °F 41% 30.33 in 10.0 mi NW 4.6 mph - N/A   Clear
10:15 PM 14.0 °F - -5.8 °F 41% 30.34 in 10.0 mi Calm Calm - N/A   Clear
10:35 PM 12.2 °F 4.3 °F -5.8 °F 45% 30.34 in 10.0 mi NW 4.6 mph - N/A   Clear
10:55 PM 12.2 °F 6.1 °F -5.8 °F 45% 30.32 in 10.0 mi NNW 3.5 mph - N/A   Clear
11:15 PM 12.2 °F -0.2 °F -5.8 °F 45% 30.32 in 10.0 mi NW 9.2 mph - N/A   Clear
11:35 PM 10.4 °F 2.2 °F -7.6 °F 44% 30.33 in 10.0 mi WNW 4.6 mph - N/A   Clear
11:55 PM 8.6 °F - -7.6 °F 48% 30.34 in 10.0 mi Calm Calm - N/A   Clear